createdAt,value
2022-12-12T00:03:07.898Z,17.73
2022-12-12T00:08:11.066Z,16.37
2022-12-12T00:13:14.117Z,16.60
2022-12-12T00:18:17.175Z,15.90
2022-12-12T00:23:20.464Z,17.23
2022-12-12T00:28:27.195Z,17.50
2022-12-12T00:33:30.294Z,17.90
2022-12-12T00:38:33.694Z,16.60
2022-12-12T00:43:36.824Z,16.73
2022-12-12T00:48:39.824Z,16.87
2022-12-12T00:53:42.869Z,15.07
2022-12-12T00:58:46.422Z,16.50
2022-12-12T01:03:49.676Z,15.60
2022-12-12T01:08:53.284Z,16.90
2022-12-12T01:13:57.070Z,16.53
2022-12-12T01:19:00.466Z,14.63
2022-12-12T01:24:03.622Z,17.20
2022-12-12T01:29:06.655Z,16.43
2022-12-12T01:34:09.812Z,15.70
2022-12-12T01:39:12.825Z,16.37
2022-12-12T01:45:01.353Z,16.47
2022-12-12T01:50:10.034Z,16.20
2022-12-12T01:55:18.332Z,15.40
2022-12-12T02:00:21.777Z,16.40
2022-12-12T02:05:27.117Z,16.90
2022-12-12T02:10:30.728Z,14.07
2022-12-12T02:15:55.341Z,15.57
2022-12-12T02:21:11.265Z,13.97
2022-12-12T02:26:25.390Z,14.47
2022-12-12T02:31:48.624Z,15.90
2022-12-12T02:37:03.633Z,16.07
2022-12-12T02:42:39.017Z,15.67
2022-12-12T02:47:56.047Z,14.57
2022-12-12T02:53:00.670Z,14.77
2022-12-12T02:58:05.419Z,14.60
2022-12-12T03:04:00.259Z,13.43
2022-12-12T03:09:38.767Z,15.97
2022-12-12T03:15:09.064Z,13.67
2022-12-12T03:20:35.939Z,12.67
2022-12-12T03:26:17.627Z,14.73
2022-12-12T03:31:25.756Z,14.00
2022-12-12T03:36:46.486Z,14.93
2022-12-12T03:42:04.887Z,14.40
2022-12-12T03:47:14.031Z,14.43
2022-12-12T03:52:22.990Z,14.33
2022-12-12T03:57:37.094Z,13.90
2022-12-12T04:02:58.139Z,13.87
2022-12-12T04:08:01.276Z,14.43
2022-12-12T04:13:07.097Z,14.03
2022-12-12T04:18:33.673Z,12.87
2022-12-12T04:23:56.099Z,13.47
2022-12-12T04:29:04.823Z,13.13
2022-12-12T04:34:18.034Z,13.43
2022-12-12T04:39:22.089Z,13.73
2022-12-12T04:44:30.562Z,12.53
2022-12-12T04:49:36.642Z,14.47
2022-12-12T04:55:00.401Z,13.50
2022-12-12T05:00:04.223Z,12.70
2022-12-12T05:05:10.171Z,12.37
2022-12-12T05:10:18.866Z,11.40
2022-12-12T05:15:22.017Z,12.57
2022-12-12T05:20:25.053Z,12.80
2022-12-12T05:25:28.165Z,10.53
2022-12-12T05:30:31.248Z,12.17
2022-12-12T05:35:34.335Z,10.53
2022-12-12T05:40:37.424Z,11.17
2022-12-12T05:45:40.487Z,11.97
2022-12-12T05:50:43.839Z,10.93
2022-12-12T05:55:46.982Z,11.50
2022-12-12T06:00:51.834Z,10.10
2022-12-12T06:05:54.836Z,8.90
2022-12-12T06:10:57.837Z,10.77
2022-12-12T06:16:05.428Z,10.60
2022-12-12T06:21:10.621Z,9.53
2022-12-12T06:26:15.589Z,10.63
2022-12-12T06:31:19.371Z,10.50
2022-12-12T06:36:24.468Z,11.33
2022-12-12T06:41:29.719Z,9.77
2022-12-12T06:46:33.105Z,10.73
2022-12-12T06:51:44.227Z,8.73
2022-12-12T06:56:48.667Z,10.07
2022-12-12T07:01:54.992Z,10.47
2022-12-12T07:06:58.600Z,10.60
2022-12-12T07:12:01.618Z,11.53
2022-12-12T07:17:04.830Z,10.13
2022-12-12T07:22:10.328Z,9.80
2022-12-12T07:27:19.975Z,10.23
2022-12-12T07:32:24.633Z,10.37
2022-12-12T07:37:27.694Z,10.47
2022-12-12T07:42:30.820Z,9.90
2022-12-12T07:47:34.104Z,10.50
2022-12-12T07:52:37.104Z,10.60
2022-12-12T07:57:41.602Z,10.07
2022-12-12T08:02:44.734Z,10.67
2022-12-12T08:07:47.780Z,10.37
2022-12-12T08:12:50.919Z,9.77
2022-12-12T08:17:53.948Z,10.10
2022-12-12T08:22:57.020Z,9.00
2022-12-12T08:28:00.277Z,10.73
2022-12-12T08:33:07.967Z,10.00
2022-12-12T08:38:11.334Z,9.43
2022-12-12T08:43:14.385Z,8.93
2022-12-12T08:48:17.333Z,10.73
2022-12-12T08:53:20.528Z,10.20
2022-12-12T08:58:23.778Z,10.47
2022-12-12T09:03:29.369Z,10.90
2022-12-12T09:08:35.967Z,11.10
2022-12-12T09:13:39.838Z,9.43
2022-12-12T09:18:48.686Z,10.50
2022-12-12T09:23:52.574Z,9.47
2022-12-12T09:28:55.558Z,9.73
2022-12-12T09:33:58.630Z,10.67
2022-12-12T09:39:01.659Z,10.80
2022-12-12T09:44:11.633Z,9.33
2022-12-12T09:49:43.455Z,10.23
2022-12-12T09:54:47.237Z,9.57
2022-12-12T10:00:10.462Z,8.83
2022-12-12T10:05:32.217Z,11.30
2022-12-12T10:10:40.003Z,11.73
2022-12-12T10:15:52.611Z,9.93
2022-12-12T10:20:59.529Z,10.57
2022-12-12T10:26:05.415Z,9.00
2022-12-12T10:31:31.821Z,11.07
2022-12-12T10:37:15.396Z,10.50
2022-12-12T10:42:39.970Z,10.87
2022-12-12T10:47:43.258Z,10.33
2022-12-12T10:52:46.362Z,10.60
2022-12-12T10:57:59.596Z,11.70
2022-12-12T11:03:20.249Z,10.27
2022-12-12T11:08:23.379Z,10.87
2022-12-12T11:13:26.449Z,11.50
2022-12-12T11:18:30.600Z,10.50
2022-12-12T11:23:35.968Z,10.57
2022-12-12T11:28:42.482Z,10.77
2022-12-12T11:33:55.985Z,10.97
2022-12-12T11:39:01.688Z,10.80
2022-12-12T11:44:04.719Z,9.67
2022-12-12T11:49:18.989Z,11.00
2022-12-12T11:54:29.483Z,10.77
2022-12-12T11:59:44.413Z,12.23
2022-12-12T12:04:53.291Z,10.37
2022-12-12T12:10:12.378Z,10.80
2022-12-12T12:15:34.173Z,10.80
2022-12-12T12:20:58.255Z,11.17
2022-12-12T12:26:22.825Z,11.30
2022-12-12T12:31:40.791Z,12.20
2022-12-12T12:36:55.730Z,9.87
2022-12-12T12:42:21.810Z,10.47
2022-12-12T12:47:54.644Z,11.97
2022-12-12T12:53:16.689Z,12.00
2022-12-12T12:58:24.352Z,13.30
2022-12-12T13:03:33.735Z,11.80
2022-12-12T13:09:00.615Z,11.50
2022-12-12T13:14:26.937Z,12.97
2022-12-12T13:19:42.041Z,14.10
2022-12-12T13:25:30.347Z,12.83
2022-12-12T13:31:11.249Z,12.90
2022-12-12T13:36:30.221Z,11.90
2022-12-12T13:42:06.081Z,13.00
2022-12-12T13:47:23.124Z,12.87
2022-12-12T13:52:32.013Z,12.67
2022-12-12T13:57:34.998Z,13.20
2022-12-12T14:02:44.392Z,13.07
2022-12-12T14:08:01.100Z,13.10
2022-12-12T14:13:23.339Z,13.53
2022-12-12T14:18:36.100Z,11.53
2022-12-12T14:23:50.483Z,12.73
2022-12-12T14:29:18.362Z,13.53
2022-12-12T14:34:46.417Z,15.57
2022-12-12T14:39:58.686Z,14.27
2022-12-12T14:45:01.734Z,15.73
2022-12-12T14:50:17.394Z,13.23
2022-12-12T14:55:20.423Z,12.43
2022-12-12T15:00:23.918Z,12.03
2022-12-12T15:05:26.950Z,11.37
2022-12-12T15:10:31.074Z,11.70
2022-12-12T15:15:35.730Z,12.37
2022-12-12T15:20:39.180Z,12.07
2022-12-12T15:25:54.272Z,12.20
2022-12-12T15:30:57.466Z,12.17
2022-12-12T15:36:07.994Z,11.90
2022-12-12T15:41:13.229Z,12.93
2022-12-12T15:46:17.279Z,12.50
2022-12-12T15:51:25.131Z,13.07
2022-12-12T15:56:29.709Z,12.77
2022-12-12T16:01:32.816Z,12.90
2022-12-12T16:06:35.919Z,12.83
2022-12-12T16:11:47.518Z,13.10
2022-12-12T16:16:53.567Z,13.77
2022-12-12T16:21:56.701Z,12.40
2022-12-12T16:27:01.077Z,12.90
2022-12-12T16:32:04.250Z,14.03
2022-12-12T16:37:09.323Z,13.40
2022-12-12T16:42:21.153Z,13.20
2022-12-12T16:47:25.001Z,14.10
2022-12-12T16:52:28.232Z,14.27
2022-12-12T16:57:31.220Z,13.97
2022-12-12T17:02:36.259Z,12.70
2022-12-12T17:07:40.001Z,11.90
2022-12-12T17:12:45.514Z,12.30
2022-12-12T17:17:48.542Z,10.30
2022-12-12T17:22:54.708Z,11.33
2022-12-12T17:27:57.750Z,11.40
2022-12-12T17:33:18.792Z,10.07
2022-12-12T17:38:21.805Z,11.77
2022-12-12T17:43:26.193Z,10.60
2022-12-12T17:48:31.499Z,10.93
2022-12-12T17:53:38.559Z,11.20
2022-12-12T17:58:44.335Z,11.17
2022-12-12T18:03:48.589Z,9.23
2022-12-12T18:08:52.619Z,10.77
2022-12-12T18:14:01.150Z,11.00
2022-12-12T18:19:04.758Z,9.07
2022-12-12T18:24:07.926Z,11.33
2022-12-12T18:29:13.657Z,11.20
2022-12-12T18:34:17.253Z,10.40
2022-12-12T18:39:20.449Z,9.63
2022-12-12T18:44:23.556Z,11.13
2022-12-12T18:49:26.723Z,10.77
2022-12-12T18:54:29.953Z,11.00
2022-12-12T18:59:32.888Z,11.40
2022-12-12T19:04:36.221Z,10.70
2022-12-12T19:09:39.683Z,11.57
2022-12-12T19:15:15.275Z,11.60
2022-12-12T19:20:06.442Z,10.97
2022-12-12T19:25:10.018Z,11.07
2022-12-12T19:30:15.036Z,11.23
2022-12-12T19:35:18.385Z,12.03
2022-12-12T19:40:21.373Z,11.33
2022-12-12T19:45:24.404Z,14.43
2022-12-12T19:50:27.485Z,14.80
2022-12-12T19:55:30.904Z,13.70
2022-12-12T20:00:33.964Z,13.93
2022-12-12T20:05:37.158Z,13.87
2022-12-12T20:10:40.165Z,13.83
2022-12-12T20:15:43.310Z,13.67
2022-12-12T20:20:46.317Z,14.33
2022-12-12T20:25:51.205Z,13.60
2022-12-12T20:31:04.728Z,13.27
2022-12-12T20:36:13.464Z,13.63
2022-12-12T20:41:37.410Z,12.43
2022-12-12T20:46:42.660Z,13.93
2022-12-12T20:51:55.806Z,13.20
2022-12-12T20:57:01.260Z,14.07
2022-12-12T21:02:04.347Z,14.20
2022-12-12T21:07:07.390Z,13.00
2022-12-12T21:12:10.569Z,13.40
2022-12-12T21:17:13.633Z,13.47
2022-12-12T21:22:16.643Z,12.53
2022-12-12T21:27:19.716Z,12.20
2022-12-12T21:32:22.934Z,9.77
2022-12-12T21:37:25.888Z,10.23
2022-12-12T21:42:29.022Z,9.07
2022-12-12T21:47:32.044Z,9.27
2022-12-12T21:52:35.137Z,8.73
2022-12-12T21:57:38.261Z,9.30
2022-12-12T22:02:44.698Z,8.57
2022-12-12T22:07:50.036Z,8.47
2022-12-12T22:12:57.048Z,7.70
2022-12-12T22:18:00.749Z,7.83
2022-12-12T22:23:03.727Z,7.27
2022-12-12T22:28:06.770Z,6.70
2022-12-12T22:33:09.835Z,6.77
2022-12-12T22:38:12.881Z,6.73
2022-12-12T22:43:15.937Z,5.03
2022-12-12T22:48:19.518Z,5.43
2022-12-12T22:53:22.519Z,5.50
2022-12-12T22:58:25.516Z,5.30
2022-12-12T23:03:30.680Z,5.20
2022-12-12T23:08:34.295Z,5.43
2022-12-12T23:13:37.802Z,6.13
2022-12-12T23:18:41.537Z,5.93
2022-12-12T23:23:45.385Z,5.90
2022-12-12T23:28:49.283Z,4.67
2022-12-12T23:33:57.983Z,4.73
2022-12-12T23:39:04.583Z,5.30
2022-12-12T23:44:08.411Z,5.00
2022-12-12T23:49:17.581Z,4.70
2022-12-12T23:54:23.840Z,4.73
2022-12-12T23:59:27.427Z,4.90
